Robert E. Mcallister — WDC8669 — position and weather

sailwx.info

Track history (hours):
 
Tides and Currents Weather Stations Pressure Air Temp Water Temp Dewpoint Dewpoint Depression Visibility Wind Speed Wind Dir Waves Ship Positions

Robert E. Mcallister

Owner: McAllister Towing & Transportation, Staten Island, NY. More information available from US FCC via Universal Licensing System and Coast Guard Vessel Documentation Center.

Last reported at 2015-Apr-21 18:33 UTC. Time now 2015-Apr-21 18:59 UTC.
Position N 40°38' W 074°10'.

Length 34 m; draft 4.3 m.

Type: Tug. MMSI: 367091120.

Date/timePositionNaut miles runAvg speedWind from/ knotsBaromVisibWave heightAir tempDewpointWater temp
2015-Apr-21 18:33N 40°38' W 074°10'0 0.0
2015-Apr-21 17:33N 40°38' W 074°10'2 2.4
2015-Apr-21 16:33N 40°41' W 074°09'2 2.0
2015-Apr-21 15:33N 40°39' W 074°09'2 2.4
2015-Apr-21 14:33N 40°38' W 074°12'5 5.4
2015-Apr-21 13:33N 40°39' W 074°05'0 0.3
2015-Apr-21 12:33N 40°39' W 074°05'6 2.9
2015-Apr-21 10:33N 40°36' W 074°12'2 1.6
2015-Apr-21 09:33N 40°38' W 074°12'2 1.7
2015-Apr-21 08:33N 40°38' W 074°10'0 0.0
2015-Apr-21 07:33N 40°38' W 074°10'0 0.0
2015-Apr-21 06:33N 40°38' W 074°10'0 0.0
2015-Apr-21 05:33N 40°38' W 074°10'0 0.0
2015-Apr-21 04:33N 40°38' W 074°10'0 0.0
2015-Apr-21 03:33N 40°38' W 074°10'0 0.0
2015-Apr-21 02:33N 40°38' W 074°10'0 0.0
2015-Apr-21 01:33N 40°38' W 074°10'2 1.8
2015-Apr-21 00:33N 40°38' W 074°12'1 0.7
2015-Apr-20 23:33N 40°38' W 074°11'1 1.2
2015-Apr-20 22:33N 40°38' W 074°10'0 0.0
2015-Apr-20 21:33N 40°38' W 074°10'0 0.0
2015-Apr-20 20:33N 40°38' W 074°10'2 1.8
2015-Apr-20 19:33N 40°38' W 074°12'1 0.6
2015-Apr-20 18:33N 40°38' W 074°12'8 8.0
2015-Apr-20 17:33N 40°40' W 074°01'0 0.3
2015-Apr-20 16:33N 40°40' W 074°01'3 3.3
2015-Apr-20 15:33N 40°42' W 073°58'3 2.6
2015-Apr-20 14:33N 40°41' W 074°01'7 6.9
2015-Apr-20 13:33N 40°38' W 074°10'0 0.0
2015-Apr-20 12:33N 40°38' W 074°10'3 3.3
2015-Apr-20 11:33N 40°42' W 074°08'1 1.4
2015-Apr-20 10:33N 40°40' W 074°08'5 4.8
2015-Apr-20 09:33N 40°37' W 074°03'5 5.3
2015-Apr-20 08:33N 40°38' W 074°10'2 2.0
2015-Apr-20 07:30N 40°37' W 074°12'0 0.0
2015-Apr-19 22:33N 40°38' W 074°12'0 0.2
2015-Apr-19 21:33N 40°38' W 074°12'5 4.9
2015-Apr-19 20:33N 40°39' W 074°06'3 2.6
2015-Apr-19 19:33N 40°38' W 074°09'1 0.9
2015-Apr-19 18:33N 40°39' W 074°09'2 2.5
2015-Apr-19 17:33N 40°42' W 074°08'0 0.0
2015-Apr-19 16:32N 40°42' W 074°08'0 0.0
2015-Apr-19 15:31N 40°42' W 074°08'0 0.0
2015-Apr-19 14:33N 40°42' W 074°08'0 0.0
2015-Apr-19 13:33N 40°42' W 074°08'0 0.0
2015-Apr-19 12:33N 40°42' W 074°08'0 0.0
2015-Apr-19 11:33N 40°42' W 074°08'3 3.1
2015-Apr-19 10:31N 40°39' W 074°09'1 1.0
2015-Apr-19 09:33N 40°38' W 074°10'0 0.0
2015-Apr-19 08:33N 40°38' W 074°10'0 0.0
2015-Apr-19 07:33N 40°38' W 074°10'0 0.0
2015-Apr-19 06:33N 40°38' W 074°10'0 0.0
2015-Apr-19 05:33N 40°38' W 074°10'0 0.0
2015-Apr-19 04:33N 40°38' W 074°10'0 0.0
2015-Apr-19 03:33N 40°38' W 074°10'0 0.0
2015-Apr-19 02:33N 40°38' W 074°10'2 2.1
2015-Apr-19 01:33N 40°39' W 074°07'2 2.2
2015-Apr-19 00:33N 40°38' W 074°10'0 0.0
2015-Apr-18 23:33N 40°38' W 074°10'0 0.0
2015-Apr-18 22:33N 40°38' W 074°10'0 0.0
2015-Apr-18 21:33N 40°38' W 074°10'0 0.0
2015-Apr-18 20:33N 40°38' W 074°10'0 0.4
2015-Apr-18 19:33N 40°38' W 074°09'2 2.4
2015-Apr-18 18:33N 40°41' W 074°09'2 2.4
2015-Apr-18 17:33N 40°39' W 074°10'4 4.4
2015-Apr-18 16:33N 40°35' W 074°13'3 1.1
2015-Apr-18 14:16N 40°33' W 074°15'0 0.0
2015-Apr-18 12:33N 40°33' W 074°15'0 0.0
2015-Apr-18 11:33N 40°33' W 074°15'0 0.0
2015-Apr-18 10:33N 40°33' W 074°15'0 0.0
2015-Apr-18 09:33N 40°33' W 074°15'7 3.4
2015-Apr-18 07:33N 40°38' W 074°10'0 0.0
2015-Apr-18 06:33N 40°38' W 074°10'0 0.0
2015-Apr-18 05:33N 40°38' W 074°10'0 0.0
2015-Apr-18 04:33N 40°38' W 074°10'0 0.0
2015-Apr-18 03:33N 40°38' W 074°10'0 0.0
2015-Apr-18 02:33N 40°38' W 074°10'1 1.0
2015-Apr-18 01:31N 40°39' W 074°11'8 1.9
2015-Apr-17 21:16N 40°31' W 074°15'0 0.0
2015-Apr-17 19:25N 40°31' W 074°15'1 0.5
2015-Apr-17 16:18N 40°33' W 074°15'2 2.1
2015-Apr-17 15:23N 40°34' W 074°13'3 1.4
2015-Apr-17 13:31N 40°36' W 074°12'3 2.9
2015-Apr-17 12:33N 40°38' W 074°10'2 1.7
2015-Apr-17 11:33N 40°40' W 074°09'1 0.5
2015-Apr-17 10:33N 40°40' W 074°08'2 1.8
2015-Apr-17 09:30N 40°38' W 074°08'1 1.3
2015-Apr-17 08:32N 40°39' W 074°09'0 0.0
2015-Apr-17 07:33N 40°39' W 074°09'1 1.0
2015-Apr-17 06:34N 40°38' W 074°10'0 0.0
2015-Apr-17 05:33N 40°38' W 074°10'6 4.8
2015-Apr-17 04:21N 40°33' W 074°14'2 0.3
2015-Apr-16 22:33N 40°32' W 074°15'3 2.7
2015-Apr-16 21:25N 40°34' W 074°13'5 5.3
2015-Apr-16 20:33N 40°38' W 074°10'0 0.0
2015-Apr-16 19:33N 40°38' W 074°10'0 0.0
2015-Apr-16 18:33N 40°38' W 074°10'2 1.9
2015-Apr-16 17:33N 40°39' W 074°07'1 0.7
2015-Apr-16 16:33N 40°39' W 074°06'1 0.9
2015-Apr-16 15:33N 40°39' W 074°08'2 1.6
2015-Apr-16 14:31N 40°38' W 074°10'0 0.0
2015-Apr-16 13:33N 40°38' W 074°10'0 0.0
2015-Apr-16 12:33N 40°38' W 074°10'1 0.6
2015-Apr-16 11:05N 40°39' W 074°11'6 3.5
2015-Apr-16 09:23N 40°38' W 074°03'5 1.7
2015-Apr-16 06:25N 40°38' W 074°10'0 0.0
2015-Apr-16 05:33N 40°38' W 074°10'3 3.5
2015-Apr-16 04:33N 40°39' W 074°05'3 2.5
2015-Apr-16 03:33N 40°40' W 074°08'0 0.3
2015-Apr-16 02:33N 40°40' W 074°09'4 4.0
2015-Apr-16 01:32N 40°37' W 074°12'0 0.0
2015-Apr-16 00:13N 40°37' W 074°12'1 1.4
2015-Apr-15 23:33N 40°38' W 074°12'6 6.2
2015-Apr-15 22:32N 40°40' W 074°04'1 1.1
2015-Apr-15 21:33N 40°40' W 074°05'4 4.0
2015-Apr-15 20:33N 40°38' W 074°10'0 0.0
2015-Apr-15 19:33N 40°38' W 074°10'0 0.0
2015-Apr-15 18:33N 40°38' W 074°10'0 0.0
2015-Apr-15 17:33N 40°38' W 074°10'0 0.0
2015-Apr-15 16:33N 40°38' W 074°10'0 0.0
2015-Apr-15 15:33N 40°38' W 074°10'0 0.0
2015-Apr-15 14:33N 40°38' W 074°10'0 0.0
2015-Apr-15 13:33N 40°38' W 074°10'3 2.5
2015-Apr-15 12:33N 40°41' W 074°09'1 0.8
2015-Apr-15 11:33N 40°40' W 074°08'4 3.1
2015-Apr-15 10:21N 40°38' W 074°12'1 1.0
2015-Apr-15 09:33N 40°38' W 074°11'5 5.4
2015-Apr-15 08:33N 40°39' W 074°04'4 4.3
2015-Apr-15 07:33N 40°38' W 074°10'0 0.0
2015-Apr-15 06:33N 40°38' W 074°10'0 0.0
2015-Apr-15 05:33N 40°38' W 074°10'0 0.0
2015-Apr-15 04:33N 40°38' W 074°10'0 0.0
2015-Apr-15 03:33N 40°38' W 074°10'0 0.5
2015-Apr-15 02:33N 40°39' W 074°10'1 0.6
2015-Apr-15 01:33N 40°39' W 074°11'1 1.0
2015-Apr-15 00:33N 40°38' W 074°10'0 0.0
2015-Apr-14 23:33N 40°38' W 074°10'0 0.0
2015-Apr-14 22:33N 40°38' W 074°10'0 0.0
2015-Apr-14 21:33N 40°38' W 074°10'0 0.0
2015-Apr-14 20:33N 40°38' W 074°10'0 0.0
2015-Apr-14 19:33N 40°38' W 074°10'0 0.0
2015-Apr-14 18:33N 40°38' W 074°10'0 0.0
2015-Apr-14 17:33N 40°38' W 074°10'1 0.5
2015-Apr-14 16:33N 40°38' W 074°09'1 0.9
2015-Apr-14 15:33N 40°39' W 074°10'2 2.0
2015-Apr-14 14:33N 40°39' W 074°08'3 3.3
2015-Apr-14 13:33N 40°38' W 074°03'5 4.9
2015-Apr-14 12:33N 40°38' W 074°10'0 0.0
2015-Apr-14 11:33N 40°38' W 074°10'1 1.5
2015-Apr-14 10:33N 40°40' W 074°09'0 0.3
2015-Apr-14 09:33N 40°40' W 074°08'5 4.6
2015-Apr-14 08:33N 40°38' W 074°03'5 5.2
2015-Apr-14 07:33N 40°38' W 074°10'0 0.0
2015-Apr-14 06:33N 40°38' W 074°10'0 0.0
2015-Apr-14 05:33N 40°38' W 074°10'0 0.0
2015-Apr-14 04:33N 40°38' W 074°10'0 0.0
2015-Apr-14 03:33N 40°38' W 074°10'0 0.0
2015-Apr-14 02:33N 40°38' W 074°10'0 0.0
2015-Apr-14 01:30N 40°38' W 074°10'3 2.8
2015-Apr-14 00:33N 40°41' W 074°08'0 0.2
2015-Apr-13 23:33N 40°41' W 074°08'3 2.6
2015-Apr-13 22:29N 40°38' W 074°10'0 0.0
2015-Apr-13 21:33N 40°38' W 074°10'0 0.0
2015-Apr-13 20:33N 40°38' W 074°10'0 0.0
2015-Apr-13 19:33N 40°38' W 074°10'0 0.0
2015-Apr-13 18:33N 40°38' W 074°10'0 0.0
2015-Apr-13 17:33N 40°38' W 074°10'0 0.0
2015-Apr-13 16:33N 40°38' W 074°10'1 0.9
2015-Apr-13 15:33N 40°39' W 074°09'5 4.8
2015-Apr-13 14:33N 40°37' W 074°03'5 5.2
2015-Apr-13 13:33N 40°38' W 074°10'0 0.2
2015-Apr-13 12:33N 40°38' W 074°10'0 0.0
2015-Apr-13 11:33N 40°38' W 074°10'0 0.0
2015-Apr-13 10:33N 40°38' W 074°10'0 0.0
2015-Apr-13 09:33N 40°38' W 074°10'0 0.0
2015-Apr-13 08:33N 40°38' W 074°10'0 0.0
2015-Apr-13 07:33N 40°38' W 074°10'0 0.0
2015-Apr-13 06:33N 40°38' W 074°10'0 0.0
2015-Apr-13 05:33N 40°38' W 074°10'5 3.6
2015-Apr-13 04:08N 40°34' W 074°13'3 5.4
2015-Apr-13 03:33N 40°37' W 074°12'2 2.3
2015-Apr-13 02:32N 40°38' W 074°10'0 0.0
2015-Apr-13 01:33N 40°38' W 074°10'0 0.0
2015-Apr-13 00:33N 40°38' W 074°10'0 0.0
2015-Apr-12 23:33N 40°38' W 074°10'1 1.3
2015-Apr-12 22:33N 40°39' W 074°09'2 2.3
2015-Apr-12 21:32N 40°42' W 074°09'1 0.6
2015-Apr-12 20:33N 40°41' W 074°08'3 3.0
2015-Apr-12 19:33N 40°39' W 074°06'2 1.9
2015-Apr-12 18:32N 40°39' W 074°09'1 0.9
2015-Apr-12 17:33N 40°38' W 074°10'0 0.0
2015-Apr-12 16:33N 40°38' W 074°10'0 0.0
2015-Apr-12 15:33N 40°38' W 074°10'0 0.0
2015-Apr-12 14:33N 40°38' W 074°10'0 0.0
2015-Apr-12 13:33N 40°38' W 074°10'0 0.0
2015-Apr-12 12:33N 40°38' W 074°10'2 1.9
2015-Apr-12 11:33N 40°40' W 074°08'0 0.5
2015-Apr-12 10:33N 40°40' W 074°09'2 1.5
2015-Apr-12 09:33N 40°38' W 074°10'0 0.0
2015-Apr-12 08:33N 40°38' W 074°10'1 1.4
2015-Apr-12 07:33N 40°40' W 074°09'1 1.4
2015-Apr-12 06:33N 40°38' W 074°10'0 0.0
2015-Apr-12 05:33N 40°38' W 074°10'0 0.0
2015-Apr-12 04:33N 40°38' W 074°10'4 4.4
2015-Apr-12 03:33N 40°40' W 074°04'1 0.5
2015-Apr-12 02:33N 40°40' W 074°04'4 4.4
2015-Apr-12 01:33N 40°38' W 074°10'0 0.0
2015-Apr-12 00:33N 40°38' W 074°10'0 0.0
2015-Apr-11 23:33N 40°38' W 074°10'0 0.0
2015-Apr-11 22:33N 40°38' W 074°10'0 0.0
2015-Apr-11 21:33N 40°38' W 074°10'0 0.0
2015-Apr-11 20:33N 40°38' W 074°10'0 0.0
2015-Apr-11 19:33N 40°38' W 074°10'  
Track history (hours):
 
Tides and Currents Weather Stations Pressure Air Temp Water Temp Dewpoint Dewpoint Depression Visibility Wind Speed Wind Dir Waves Ship Positions

Robert E. Mcallister

Owner: McAllister Towing & Transportation, Staten Island, NY. More information available from US FCC via Universal Licensing System and Coast Guard Vessel Documentation Center.

Last reported at 2015-Apr-21 18:33 UTC. Time now 2015-Apr-21 18:59 UTC.
Position N 40°38' W 074°10'.

Length 34 m; draft 4.3 m.

Type: Tug. MMSI: 367091120.

Date/timePositionNaut miles runAvg speedWind from/ knotsBaromVisibWave heightAir tempDewpointWater temp
2015-Apr-21 18:33N 40°38' W 074°10'0 0.0
2015-Apr-21 17:33N 40°38' W 074°10'2 2.4
2015-Apr-21 16:33N 40°41' W 074°09'2 2.0
2015-Apr-21 15:33N 40°39' W 074°09'2 2.4
2015-Apr-21 14:33N 40°38' W 074°12'5 5.4
2015-Apr-21 13:33N 40°39' W 074°05'0 0.3
2015-Apr-21 12:33N 40°39' W 074°05'6 2.9
2015-Apr-21 10:33N 40°36' W 074°12'2 1.6
2015-Apr-21 09:33N 40°38' W 074°12'2 1.7
2015-Apr-21 08:33N 40°38' W 074°10'0 0.0
2015-Apr-21 07:33N 40°38' W 074°10'0 0.0
2015-Apr-21 06:33N 40°38' W 074°10'0 0.0
2015-Apr-21 05:33N 40°38' W 074°10'0 0.0
2015-Apr-21 04:33N 40°38' W 074°10'0 0.0
2015-Apr-21 03:33N 40°38' W 074°10'0 0.0
2015-Apr-21 02:33N 40°38' W 074°10'0 0.0
2015-Apr-21 01:33N 40°38' W 074°10'2 1.8
2015-Apr-21 00:33N 40°38' W 074°12'1 0.7
2015-Apr-20 23:33N 40°38' W 074°11'1 1.2
2015-Apr-20 22:33N 40°38' W 074°10'0 0.0
2015-Apr-20 21:33N 40°38' W 074°10'0 0.0
2015-Apr-20 20:33N 40°38' W 074°10'2 1.8
2015-Apr-20 19:33N 40°38' W 074°12'1 0.6
2015-Apr-20 18:33N 40°38' W 074°12'8 8.0
2015-Apr-20 17:33N 40°40' W 074°01'0 0.3
2015-Apr-20 16:33N 40°40' W 074°01'3 3.3
2015-Apr-20 15:33N 40°42' W 073°58'3 2.6
2015-Apr-20 14:33N 40°41' W 074°01'7 6.9
2015-Apr-20 13:33N 40°38' W 074°10'0 0.0
2015-Apr-20 12:33N 40°38' W 074°10'3 3.3
2015-Apr-20 11:33N 40°42' W 074°08'1 1.4
2015-Apr-20 10:33N 40°40' W 074°08'5 4.8
2015-Apr-20 09:33N 40°37' W 074°03'5 5.3
2015-Apr-20 08:33N 40°38' W 074°10'2 2.0
2015-Apr-20 07:30N 40°37' W 074°12'0 0.0
2015-Apr-19 22:33N 40°38' W 074°12'0 0.2
2015-Apr-19 21:33N 40°38' W 074°12'5 4.9
2015-Apr-19 20:33N 40°39' W 074°06'3 2.6
2015-Apr-19 19:33N 40°38' W 074°09'1 0.9
2015-Apr-19 18:33N 40°39' W 074°09'2 2.5
2015-Apr-19 17:33N 40°42' W 074°08'0 0.0
2015-Apr-19 16:32N 40°42' W 074°08'0 0.0
2015-Apr-19 15:31N 40°42' W 074°08'0 0.0
2015-Apr-19 14:33N 40°42' W 074°08'0 0.0
2015-Apr-19 13:33N 40°42' W 074°08'0 0.0
2015-Apr-19 12:33N 40°42' W 074°08'0 0.0
2015-Apr-19 11:33N 40°42' W 074°08'3 3.1
2015-Apr-19 10:31N 40°39' W 074°09'1 1.0
2015-Apr-19 09:33N 40°38' W 074°10'0 0.0
2015-Apr-19 08:33N 40°38' W 074°10'0 0.0
2015-Apr-19 07:33N 40°38' W 074°10'0 0.0
2015-Apr-19 06:33N 40°38' W 074°10'0 0.0
2015-Apr-19 05:33N 40°38' W 074°10'0 0.0
2015-Apr-19 04:33N 40°38' W 074°10'0 0.0
2015-Apr-19 03:33N 40°38' W 074°10'0 0.0
2015-Apr-19 02:33N 40°38' W 074°10'2 2.1
2015-Apr-19 01:33N 40°39' W 074°07'2 2.2
2015-Apr-19 00:33N 40°38' W 074°10'0 0.0
2015-Apr-18 23:33N 40°38' W 074°10'0 0.0
2015-Apr-18 22:33N 40°38' W 074°10'0 0.0
2015-Apr-18 21:33N 40°38' W 074°10'0 0.0
2015-Apr-18 20:33N 40°38' W 074°10'0 0.4
2015-Apr-18 19:33N 40°38' W 074°09'2 2.4
2015-Apr-18 18:33N 40°41' W 074°09'2 2.4
2015-Apr-18 17:33N 40°39' W 074°10'4 4.4
2015-Apr-18 16:33N 40°35' W 074°13'3 1.1
2015-Apr-18 14:16N 40°33' W 074°15'0 0.0
2015-Apr-18 12:33N 40°33' W 074°15'0 0.0
2015-Apr-18 11:33N 40°33' W 074°15'0 0.0
2015-Apr-18 10:33N 40°33' W 074°15'0 0.0
2015-Apr-18 09:33N 40°33' W 074°15'7 3.4
2015-Apr-18 07:33N 40°38' W 074°10'0 0.0
2015-Apr-18 06:33N 40°38' W 074°10'0 0.0
2015-Apr-18 05:33N 40°38' W 074°10'0 0.0
2015-Apr-18 04:33N 40°38' W 074°10'0 0.0
2015-Apr-18 03:33N 40°38' W 074°10'0 0.0
2015-Apr-18 02:33N 40°38' W 074°10'1 1.0
2015-Apr-18 01:31N 40°39' W 074°11'8 1.9
2015-Apr-17 21:16N 40°31' W 074°15'0 0.0
2015-Apr-17 19:25N 40°31' W 074°15'1 0.5
2015-Apr-17 16:18N 40°33' W 074°15'2 2.1
2015-Apr-17 15:23N 40°34' W 074°13'3 1.4
2015-Apr-17 13:31N 40°36' W 074°12'3 2.9
2015-Apr-17 12:33N 40°38' W 074°10'2 1.7
2015-Apr-17 11:33N 40°40' W 074°09'1 0.5
2015-Apr-17 10:33N 40°40' W 074°08'2 1.8
2015-Apr-17 09:30N 40°38' W 074°08'1 1.3
2015-Apr-17 08:32N 40°39' W 074°09'0 0.0
2015-Apr-17 07:33N 40°39' W 074°09'1 1.0
2015-Apr-17 06:34N 40°38' W 074°10'0 0.0
2015-Apr-17 05:33N 40°38' W 074°10'6 4.8
2015-Apr-17 04:21N 40°33' W 074°14'2 0.3
2015-Apr-16 22:33N 40°32' W 074°15'3 2.7
2015-Apr-16 21:25N 40°34' W 074°13'5 5.3
2015-Apr-16 20:33N 40°38' W 074°10'0 0.0
2015-Apr-16 19:33N 40°38' W 074°10'0 0.0
2015-Apr-16 18:33N 40°38' W 074°10'2 1.9
2015-Apr-16 17:33N 40°39' W 074°07'1 0.7
2015-Apr-16 16:33N 40°39' W 074°06'1 0.9
2015-Apr-16 15:33N 40°39' W 074°08'2 1.6
2015-Apr-16 14:31N 40°38' W 074°10'0 0.0
2015-Apr-16 13:33N 40°38' W 074°10'0 0.0
2015-Apr-16 12:33N 40°38' W 074°10'1 0.6
2015-Apr-16 11:05N 40°39' W 074°11'6 3.5
2015-Apr-16 09:23N 40°38' W 074°03'5 1.7
2015-Apr-16 06:25N 40°38' W 074°10'0 0.0
2015-Apr-16 05:33N 40°38' W 074°10'3 3.5
2015-Apr-16 04:33N 40°39' W 074°05'3 2.5
2015-Apr-16 03:33N 40°40' W 074°08'0 0.3
2015-Apr-16 02:33N 40°40' W 074°09'4 4.0
2015-Apr-16 01:32N 40°37' W 074°12'0 0.0
2015-Apr-16 00:13N 40°37' W 074°12'1 1.4
2015-Apr-15 23:33N 40°38' W 074°12'6 6.2
2015-Apr-15 22:32N 40°40' W 074°04'1 1.1
2015-Apr-15 21:33N 40°40' W 074°05'4 4.0
2015-Apr-15 20:33N 40°38' W 074°10'0 0.0
2015-Apr-15 19:33N 40°38' W 074°10'0 0.0
2015-Apr-15 18:33N 40°38' W 074°10'0 0.0
2015-Apr-15 17:33N 40°38' W 074°10'0 0.0
2015-Apr-15 16:33N 40°38' W 074°10'0 0.0
2015-Apr-15 15:33N 40°38' W 074°10'0 0.0
2015-Apr-15 14:33N 40°38' W 074°10'0 0.0
2015-Apr-15 13:33N 40°38' W 074°10'3 2.5
2015-Apr-15 12:33N 40°41' W 074°09'1 0.8
2015-Apr-15 11:33N 40°40' W 074°08'4 3.1
2015-Apr-15 10:21N 40°38' W 074°12'1 1.0
2015-Apr-15 09:33N 40°38' W 074°11'5 5.4
2015-Apr-15 08:33N 40°39' W 074°04'4 4.3
2015-Apr-15 07:33N 40°38' W 074°10'0 0.0
2015-Apr-15 06:33N 40°38' W 074°10'0 0.0
2015-Apr-15 05:33N 40°38' W 074°10'0 0.0
2015-Apr-15 04:33N 40°38' W 074°10'0 0.0
2015-Apr-15 03:33N 40°38' W 074°10'0 0.5
2015-Apr-15 02:33N 40°39' W 074°10'1 0.6
2015-Apr-15 01:33N 40°39' W 074°11'1 1.0
2015-Apr-15 00:33N 40°38' W 074°10'0 0.0
2015-Apr-14 23:33N 40°38' W 074°10'0 0.0
2015-Apr-14 22:33N 40°38' W 074°10'0 0.0
2015-Apr-14 21:33N 40°38' W 074°10'0 0.0
2015-Apr-14 20:33N 40°38' W 074°10'0 0.0
2015-Apr-14 19:33N 40°38' W 074°10'0 0.0
2015-Apr-14 18:33N 40°38' W 074°10'0 0.0
2015-Apr-14 17:33N 40°38' W 074°10'1 0.5
2015-Apr-14 16:33N 40°38' W 074°09'1 0.9
2015-Apr-14 15:33N 40°39' W 074°10'2 2.0
2015-Apr-14 14:33N 40°39' W 074°08'3 3.3
2015-Apr-14 13:33N 40°38' W 074°03'5 4.9
2015-Apr-14 12:33N 40°38' W 074°10'0 0.0
2015-Apr-14 11:33N 40°38' W 074°10'1 1.5
2015-Apr-14 10:33N 40°40' W 074°09'0 0.3
2015-Apr-14 09:33N 40°40' W 074°08'5 4.6
2015-Apr-14 08:33N 40°38' W 074°03'5 5.2
2015-Apr-14 07:33N 40°38' W 074°10'0 0.0
2015-Apr-14 06:33N 40°38' W 074°10'0 0.0
2015-Apr-14 05:33N 40°38' W 074°10'0 0.0
2015-Apr-14 04:33N 40°38' W 074°10'0 0.0
2015-Apr-14 03:33N 40°38' W 074°10'0 0.0
2015-Apr-14 02:33N 40°38' W 074°10'0 0.0
2015-Apr-14 01:30N 40°38' W 074°10'3 2.8
2015-Apr-14 00:33N 40°41' W 074°08'0 0.2
2015-Apr-13 23:33N 40°41' W 074°08'3 2.6
2015-Apr-13 22:29N 40°38' W 074°10'0 0.0
2015-Apr-13 21:33N 40°38' W 074°10'0 0.0
2015-Apr-13 20:33N 40°38' W 074°10'0 0.0
2015-Apr-13 19:33N 40°38' W 074°10'0 0.0
2015-Apr-13 18:33N 40°38' W 074°10'0 0.0
2015-Apr-13 17:33N 40°38' W 074°10'0 0.0
2015-Apr-13 16:33N 40°38' W 074°10'1 0.9
2015-Apr-13 15:33N 40°39' W 074°09'5 4.8
2015-Apr-13 14:33N 40°37' W 074°03'5 5.2
2015-Apr-13 13:33N 40°38' W 074°10'0 0.2
2015-Apr-13 12:33N 40°38' W 074°10'0 0.0
2015-Apr-13 11:33N 40°38' W 074°10'0 0.0
2015-Apr-13 10:33N 40°38' W 074°10'0 0.0
2015-Apr-13 09:33N 40°38' W 074°10'0 0.0
2015-Apr-13 08:33N 40°38' W 074°10'0 0.0
2015-Apr-13 07:33N 40°38' W 074°10'0 0.0
2015-Apr-13 06:33N 40°38' W 074°10'0 0.0
2015-Apr-13 05:33N 40°38' W 074°10'5 3.6
2015-Apr-13 04:08N 40°34' W 074°13'3 5.4
2015-Apr-13 03:33N 40°37' W 074°12'2 2.3
2015-Apr-13 02:32N 40°38' W 074°10'0 0.0
2015-Apr-13 01:33N 40°38' W 074°10'0 0.0
2015-Apr-13 00:33N 40°38' W 074°10'0 0.0
2015-Apr-12 23:33N 40°38' W 074°10'1 1.3
2015-Apr-12 22:33N 40°39' W 074°09'2 2.3
2015-Apr-12 21:32N 40°42' W 074°09'1 0.6
2015-Apr-12 20:33N 40°41' W 074°08'3 3.0
2015-Apr-12 19:33N 40°39' W 074°06'2 1.9
2015-Apr-12 18:32N 40°39' W 074°09'1 0.9
2015-Apr-12 17:33N 40°38' W 074°10'0 0.0
2015-Apr-12 16:33N 40°38' W 074°10'0 0.0
2015-Apr-12 15:33N 40°38' W 074°10'0 0.0
2015-Apr-12 14:33N 40°38' W 074°10'0 0.0
2015-Apr-12 13:33N 40°38' W 074°10'0 0.0
2015-Apr-12 12:33N 40°38' W 074°10'2 1.9
2015-Apr-12 11:33N 40°40' W 074°08'0 0.5
2015-Apr-12 10:33N 40°40' W 074°09'2 1.5
2015-Apr-12 09:33N 40°38' W 074°10'0 0.0
2015-Apr-12 08:33N 40°38' W 074°10'1 1.4
2015-Apr-12 07:33N 40°40' W 074°09'1 1.4
2015-Apr-12 06:33N 40°38' W 074°10'0 0.0
2015-Apr-12 05:33N 40°38' W 074°10'0 0.0
2015-Apr-12 04:33N 40°38' W 074°10'4 4.4
2015-Apr-12 03:33N 40°40' W 074°04'1 0.5
2015-Apr-12 02:33N 40°40' W 074°04'4 4.4
2015-Apr-12 01:33N 40°38' W 074°10'0 0.0
2015-Apr-12 00:33N 40°38' W 074°10'0 0.0
2015-Apr-11 23:33N 40°38' W 074°10'0 0.0
2015-Apr-11 22:33N 40°38' W 074°10'0 0.0
2015-Apr-11 21:33N 40°38' W 074°10'0 0.0
2015-Apr-11 20:33N 40°38' W 074°10'0 0.0
2015-Apr-11 19:33N 40°38' W 074°10'  

Dump ship's entire track history